This is the latest recevied weather packets stored in our database for station/object LRCL. If no packets are shown the sender has not sent any weather packets the latest 10 day(s).
| Time | Temp. | Humidity | Pressure | Rain* | Wind** | Luminosity | Snow |
|---|---|---|---|---|---|---|---|
| 1777465089 | 16.11° C | 27% | 1018 hPa | - | - | - | - |
| 1777464188 | 16.11° C | 31% | 1018 hPa | - | - | - | - |
| 1777463288 | 16.11° C | 29% | 1018 hPa | - | - | - | - |
| 1777462388 | 16.11° C | 29% | 1018 hPa | - | - | - | - |
| 1777461488 | 15° C | 31% | 1018 hPa | - | - | - | - |
| 1777460588 | 15° C | 31% | 1018 hPa | - | - | - | - |
| 1777459688 | 15° C | 29% | 1018 hPa | - | - | - | - |
| 1777458788 | 15° C | 29% | 1018 hPa | - | - | - | - |
| 1777457889 | 15° C | 29% | 1019 hPa | - | - | - | - |
| 1777456988 | 15° C | 29% | 1019 hPa | - | - | - | - |
| 1777456088 | 15° C | 27% | 1019 hPa | - | - | - | - |
| 1777455188 | 15° C | 27% | 1019 hPa | - | - | - | - |
| 1777454296 | 13.89° C | 33% | 1019 hPa | - | - | - | - |
| 1777453389 | 13.89° C | 33% | 1019 hPa | - | - | - | - |
| 1777452488 | 13.89° C | 36% | 1019 hPa | - | - | - | - |
| 1777451588 | 13.89° C | 36% | 1019 hPa | - | - | - | - |
| 1777450688 | 12.78° C | 41% | 1019 hPa | - | - | - | - |
| 1777449788 | 12.78° C | 41% | 1019 hPa | - | - | - | - |
| 1777448888 | 12.22° C | 47% | 1019 hPa | - | - | - | - |
| 1777447988 | 12.22° C | 47% | 1019 hPa | - | - | - | - |
| 1777447088 | 11.11° C | 47% | 1019 hPa | - | - | - | - |
| 1777446188 | 11.11° C | 47% | 1019 hPa | - | - | - | - |
| 1777445288 | 8.89° C | 54% | 1019 hPa | - | - | - | - |
| 1777444389 | 8.89° C | 54% | 1019 hPa | - | - | - | - |
| 1777443488 | 7.78° C | 57% | 1019 hPa | - | - | - | - |
* Rain since midnight (hover to see other rain measurements)
** Current wind speed in m/s (hover to see current wind gust speed)